DAL623 CYVR-KSAN
Flight info
| Callsign | DAL623 |
|---|---|
| Flight time | 2h 24m |
| Altitude | 31000 |
| Route | YVR J5 SEA PAWLI Q11 PASKE HUULK COMIX2 |
| Aircraft | MD88/L-VGDW/C |
Departure
| Time | 2026-05-06 03:48 |
|---|---|
| Airport | Vancouver International Airport (CYVR) |
Arrival
| Time | 2026-05-06 06:12 |
|---|---|
| Airport | San Diego International Airport (KSAN) |
| Time | Latitude | Longitude | Altitude | Speed | Heading |
|---|---|---|---|---|---|
| 2026-05-06 03:16 | 49.19850 | -123.17477 | 19 ft | 0 kts | 155° |
| 2026-05-06 03:32 | 49.19857 | -123.17481 | 23 ft | 3 kts | 165° |
| 2026-05-06 03:33 | 49.19877 | -123.17484 | 21 ft | 3 kts | 189° |
| 2026-05-06 03:33 | 49.19895 | -123.17474 | 20 ft | 3 kts | 213° |
| 2026-05-06 03:33 | 49.19909 | -123.17454 | 22 ft | 3 kts | 237° |
| 2026-05-06 03:33 | 49.19917 | -123.17427 | 20 ft | 3 kts | 261° |
| 2026-05-06 03:34 | 49.19918 | -123.17398 | 21 ft | 3 kts | 265° |
| 2026-05-06 03:34 | 49.19920 | -123.17369 | 21 ft | 3 kts | 271° |
| 2026-05-06 03:34 | 49.19919 | -123.17349 | 21 ft | 0 kts | 279° |
| 2026-05-06 03:39 | 49.19922 | -123.17365 | 19 ft | 5 kts | 297° |
| 2026-05-06 03:39 | 49.19973 | -123.17403 | 21 ft | 11 kts | 335° |
| 2026-05-06 03:39 | 49.20008 | -123.17502 | 19 ft | 11 kts | 280° |
| 2026-05-06 03:39 | 49.20022 | -123.17618 | 19 ft | 11 kts | 280° |
| 2026-05-06 03:40 | 49.20036 | -123.17738 | 19 ft | 12 kts | 280° |
| 2026-05-06 03:40 | 49.20051 | -123.17862 | 20 ft | 12 kts | 280° |
| 2026-05-06 03:40 | 49.20066 | -123.17987 | 20 ft | 12 kts | 280° |
| 2026-05-06 03:40 | 49.20081 | -123.18116 | 20 ft | 12 kts | 280° |
| 2026-05-06 03:41 | 49.20096 | -123.18247 | 20 ft | 13 kts | 279° |
| 2026-05-06 03:41 | 49.20110 | -123.18381 | 20 ft | 13 kts | 279° |
| 2026-05-06 03:41 | 49.20125 | -123.18515 | 20 ft | 13 kts | 280° |
| 2026-05-06 03:41 | 49.20141 | -123.18651 | 20 ft | 13 kts | 280° |
| 2026-05-06 03:42 | 49.20157 | -123.18790 | 21 ft | 13 kts | 280° |
| 2026-05-06 03:42 | 49.20173 | -123.18931 | 21 ft | 14 kts | 280° |
| 2026-05-06 03:42 | 49.20127 | -123.19032 | 21 ft | 17 kts | 191° |
| 2026-05-06 03:42 | 49.19990 | -123.19066 | 20 ft | 20 kts | 189° |
| 2026-05-06 03:43 | 49.19851 | -123.19101 | 20 ft | 20 kts | 189° |
| 2026-05-06 03:43 | 49.19711 | -123.19138 | 18 ft | 20 kts | 192° |
| 2026-05-06 03:43 | 49.19573 | -123.19183 | 19 ft | 20 kts | 192° |
| 2026-05-06 03:43 | 49.19437 | -123.19218 | 17 ft | 20 kts | 189° |
| 2026-05-06 03:44 | 49.19349 | -123.19251 | 16 ft | 13 kts | 214° |
| 2026-05-06 03:44 | 49.19313 | -123.19403 | 16 ft | 18 kts | 259° |
| 2026-05-06 03:44 | 49.19290 | -123.19585 | 17 ft | 17 kts | 259° |
| 2026-05-06 03:44 | 49.19267 | -123.19765 | 18 ft | 17 kts | 259° |
| 2026-05-06 03:45 | 49.19245 | -123.19943 | 18 ft | 17 kts | 259° |
| 2026-05-06 03:45 | 49.19224 | -123.20122 | 18 ft | 17 kts | 259° |
| 2026-05-06 03:45 | 49.19202 | -123.20299 | 18 ft | 17 kts | 259° |
| 2026-05-06 03:45 | 49.19183 | -123.20442 | 19 ft | 12 kts | 260° |
| 2026-05-06 03:46 | 49.19187 | -123.20568 | 19 ft | 12 kts | 278° |
| 2026-05-06 03:46 | 49.19199 | -123.20696 | 19 ft | 12 kts | 278° |
| 2026-05-06 03:46 | 49.19177 | -123.20812 | 20 ft | 12 kts | 212° |
| 2026-05-06 03:46 | 49.19086 | -123.20844 | 20 ft | 14 kts | 188° |
| 2026-05-06 03:47 | 49.19010 | -123.20769 | 19 ft | 22 kts | 105° |
| 2026-05-06 03:47 | 49.18950 | -123.20248 | 19 ft | 82 kts | 100° |
| 2026-05-06 03:47 | 49.18816 | -123.19073 | 18 ft | 141 kts | 100° |
| 2026-05-06 03:47 | 49.18619 | -123.17370 | 201 ft | 175 kts | 100° |
| 2026-05-06 03:48 | 49.18405 | -123.15565 | 1085 ft | 170 kts | 101° |
| 2026-05-06 03:48 | 49.17955 | -123.13877 | 1677 ft | 180 kts | 137° |
| 2026-05-06 03:48 | 49.16840 | -123.13137 | 2379 ft | 180 kts | 185° |
| 2026-05-06 03:48 | 49.15569 | -123.13648 | 2801 ft | 199 kts | 201° |
| 2026-05-06 03:49 | 49.14172 | -123.14269 | 3242 ft | 221 kts | 193° |
| 2026-05-06 03:49 | 49.12572 | -123.14634 | 3627 ft | 245 kts | 187° |
| 2026-05-06 03:49 | 49.10787 | -123.14737 | 4010 ft | 268 kts | 180° |
| 2026-05-06 03:49 | 49.08887 | -123.14533 | 4631 ft | 277 kts | 175° |
| 2026-05-06 03:50 | 49.06965 | -123.14012 | 5338 ft | 282 kts | 168° |
| 2026-05-06 03:50 | 49.05060 | -123.13268 | 6161 ft | 284 kts | 166° |
| 2026-05-06 03:50 | 49.03180 | -123.12467 | 6893 ft | 286 kts | 165° |
| 2026-05-06 03:50 | 49.01272 | -123.11578 | 7589 ft | 287 kts | 163° |
| 2026-05-06 03:51 | 48.99355 | -123.10627 | 8181 ft | 291 kts | 162° |
| 2026-05-06 03:51 | 48.97428 | -123.09634 | 8812 ft | 294 kts | 162° |
| 2026-05-06 03:51 | 48.95488 | -123.08608 | 9445 ft | 296 kts | 161° |
| 2026-05-06 03:51 | 48.93532 | -123.07561 | 10036 ft | 300 kts | 161° |
| 2026-05-06 03:52 | 48.91524 | -123.06482 | 10308 ft | 315 kts | 161° |
| 2026-05-06 03:52 | 48.89401 | -123.05341 | 10473 ft | 332 kts | 161° |
| 2026-05-06 03:52 | 48.87172 | -123.04147 | 10657 ft | 347 kts | 161° |
| 2026-05-06 03:52 | 48.84867 | -123.02925 | 11052 ft | 353 kts | 161° |
| 2026-05-06 03:53 | 48.82559 | -123.01721 | 11514 ft | 358 kts | 161° |
| 2026-05-06 03:53 | 48.80199 | -123.00484 | 12028 ft | 361 kts | 161° |
| 2026-05-06 03:53 | 48.77814 | -122.99229 | 12512 ft | 364 kts | 161° |
| 2026-05-06 03:53 | 48.75408 | -122.97959 | 12993 ft | 368 kts | 161° |
| 2026-05-06 03:54 | 48.72979 | -122.96678 | 13504 ft | 372 kts | 161° |
| 2026-05-06 03:54 | 48.70523 | -122.95386 | 13991 ft | 376 kts | 161° |
| 2026-05-06 03:54 | 48.68048 | -122.94088 | 14492 ft | 378 kts | 162° |
| 2026-05-06 03:54 | 48.65551 | -122.92784 | 14961 ft | 381 kts | 162° |
| 2026-05-06 03:55 | 48.63073 | -122.91492 | 15447 ft | 384 kts | 162° |
| 2026-05-06 03:55 | 48.60539 | -122.90174 | 15934 ft | 386 kts | 162° |
| 2026-05-06 03:55 | 48.57984 | -122.88848 | 16378 ft | 390 kts | 162° |
| 2026-05-06 03:55 | 48.55412 | -122.87514 | 16863 ft | 393 kts | 162° |
| 2026-05-06 03:56 | 48.52821 | -122.86173 | 17336 ft | 395 kts | 162° |
| 2026-05-06 03:56 | 48.50210 | -122.84824 | 17785 ft | 398 kts | 162° |
| 2026-05-06 03:56 | 48.47577 | -122.83465 | 18256 ft | 401 kts | 162° |
| 2026-05-06 03:56 | 48.44929 | -122.82099 | 18686 ft | 404 kts | 162° |
| 2026-05-06 03:57 | 48.42262 | -122.80724 | 19075 ft | 407 kts | 162° |
| 2026-05-06 03:57 | 48.39610 | -122.79362 | 19478 ft | 409 kts | 162° |
| 2026-05-06 03:57 | 48.36905 | -122.77979 | 19859 ft | 412 kts | 162° |
| 2026-05-06 03:57 | 48.34182 | -122.76589 | 20258 ft | 415 kts | 162° |
| 2026-05-06 03:58 | 48.31436 | -122.75187 | 20660 ft | 418 kts | 162° |
| 2026-05-06 03:58 | 48.28676 | -122.73776 | 21068 ft | 420 kts | 162° |
| 2026-05-06 03:58 | 48.25900 | -122.72355 | 21484 ft | 423 kts | 162° |
| 2026-05-06 03:58 | 48.23102 | -122.70924 | 21885 ft | 426 kts | 162° |
| 2026-05-06 03:59 | 48.20290 | -122.69487 | 22313 ft | 429 kts | 162° |
| 2026-05-06 03:59 | 48.17454 | -122.68039 | 22707 ft | 432 kts | 162° |
| 2026-05-06 03:59 | 48.14641 | -122.66604 | 23100 ft | 434 kts | 161° |
| 2026-05-06 03:59 | 48.11767 | -122.65140 | 23489 ft | 438 kts | 161° |
| 2026-05-06 04:00 | 48.08877 | -122.63670 | 23844 ft | 440 kts | 161° |
| 2026-05-06 04:00 | 48.05971 | -122.62194 | 24184 ft | 442 kts | 161° |
| 2026-05-06 04:00 | 48.03048 | -122.60714 | 24483 ft | 444 kts | 162° |
| 2026-05-06 04:00 | 48.00117 | -122.59238 | 24808 ft | 447 kts | 161° |
| 2026-05-06 04:01 | 47.97160 | -122.57747 | 25120 ft | 449 kts | 161° |
| 2026-05-06 04:01 | 47.94187 | -122.56248 | 25425 ft | 453 kts | 161° |
| 2026-05-06 04:01 | 47.91199 | -122.54743 | 25776 ft | 455 kts | 161° |
| 2026-05-06 04:01 | 47.88234 | -122.53251 | 26080 ft | 457 kts | 161° |
| 2026-05-06 04:02 | 47.85212 | -122.51730 | 26398 ft | 460 kts | 161° |
| 2026-05-06 04:02 | 47.82174 | -122.50201 | 26712 ft | 462 kts | 161° |
| 2026-05-06 04:02 | 47.79121 | -122.48667 | 27010 ft | 465 kts | 161° |
| 2026-05-06 04:02 | 47.76051 | -122.47128 | 27344 ft | 466 kts | 161° |
| 2026-05-06 04:03 | 47.72969 | -122.45584 | 27632 ft | 469 kts | 161° |
| 2026-05-06 04:03 | 47.69876 | -122.44036 | 28007 ft | 469 kts | 161° |
| 2026-05-06 04:03 | 47.66789 | -122.42494 | 28447 ft | 468 kts | 161° |
| 2026-05-06 04:03 | 47.63747 | -122.40977 | 28828 ft | 467 kts | 161° |
| 2026-05-06 04:04 | 47.60665 | -122.39440 | 29202 ft | 467 kts | 161° |
| 2026-05-06 04:04 | 47.57592 | -122.37899 | 29613 ft | 466 kts | 160° |
| 2026-05-06 04:04 | 47.54526 | -122.36362 | 30007 ft | 465 kts | 161° |
| 2026-05-06 04:04 | 47.51460 | -122.34832 | 30333 ft | 465 kts | 161° |
| 2026-05-06 04:05 | 47.48403 | -122.33312 | 30661 ft | 463 kts | 161° |
| 2026-05-06 04:05 | 47.45362 | -122.31806 | 30870 ft | 458 kts | 161° |
| 2026-05-06 04:05 | 47.39181 | -122.29227 | 31016 ft | 468 kts | 167° |
| 2026-05-06 04:06 | 47.32771 | -122.27151 | 31049 ft | 482 kts | 167° |
| 2026-05-06 04:06 | 47.26127 | -122.24945 | 31063 ft | 495 kts | 167° |
| 2026-05-06 04:07 | 47.19399 | -122.22598 | 31061 ft | 497 kts | 166° |
| 2026-05-06 04:07 | 47.12691 | -122.20234 | 31066 ft | 495 kts | 166° |
| 2026-05-06 04:08 | 47.06008 | -122.17896 | 31065 ft | 493 kts | 166° |
| 2026-05-06 04:08 | 46.99370 | -122.15600 | 31066 ft | 494 kts | 166° |
| 2026-05-06 04:09 | 46.92671 | -122.13300 | 31063 ft | 495 kts | 166° |
| 2026-05-06 04:09 | 46.85966 | -122.10994 | 31058 ft | 495 kts | 166° |
| 2026-05-06 04:10 | 46.79256 | -122.08688 | 31056 ft | 496 kts | 166° |
| 2026-05-06 04:10 | 46.72595 | -122.06406 | 31052 ft | 494 kts | 166° |
| 2026-05-06 04:11 | 46.65900 | -122.04116 | 31051 ft | 493 kts | 166° |
| 2026-05-06 04:11 | 46.59214 | -122.01841 | 31047 ft | 494 kts | 166° |
| 2026-05-06 04:12 | 46.52525 | -121.99580 | 31042 ft | 493 kts | 166° |
| 2026-05-06 04:12 | 46.45836 | -121.97319 | 31044 ft | 494 kts | 166° |
| 2026-05-06 04:13 | 46.39174 | -121.95066 | 31037 ft | 495 kts | 166° |
| 2026-05-06 04:13 | 46.32465 | -121.92803 | 31035 ft | 495 kts | 166° |
| 2026-05-06 04:14 | 46.25749 | -121.90543 | 31034 ft | 496 kts | 166° |
| 2026-05-06 04:14 | 46.19030 | -121.88295 | 31027 ft | 495 kts | 166° |
| 2026-05-06 04:15 | 46.12315 | -121.86060 | 31029 ft | 495 kts | 166° |
| 2026-05-06 04:15 | 46.05641 | -121.83841 | 31022 ft | 496 kts | 165° |
| 2026-05-06 04:16 | 45.98916 | -121.81602 | 31015 ft | 496 kts | 165° |
| 2026-05-06 04:16 | 45.92192 | -121.79370 | 31013 ft | 496 kts | 166° |
| 2026-05-06 04:17 | 45.85475 | -121.77145 | 31008 ft | 495 kts | 166° |
| 2026-05-06 04:17 | 45.78811 | -121.74949 | 31002 ft | 494 kts | 166° |
| 2026-05-06 04:18 | 45.72100 | -121.72751 | 31007 ft | 495 kts | 166° |
| 2026-05-06 04:18 | 45.65384 | -121.70553 | 31008 ft | 496 kts | 165° |
| 2026-05-06 04:19 | 45.58659 | -121.68348 | 31003 ft | 496 kts | 165° |
| 2026-05-06 04:19 | 45.51939 | -121.66152 | 31002 ft | 495 kts | 165° |
| 2026-05-06 04:20 | 45.45258 | -121.63973 | 30998 ft | 496 kts | 165° |
| 2026-05-06 04:20 | 45.38524 | -121.61786 | 31002 ft | 496 kts | 165° |
| 2026-05-06 04:21 | 45.31789 | -121.59612 | 30999 ft | 496 kts | 165° |
| 2026-05-06 04:21 | 45.25055 | -121.57442 | 31001 ft | 497 kts | 165° |
| 2026-05-06 04:22 | 45.18361 | -121.55280 | 30995 ft | 496 kts | 165° |
| 2026-05-06 04:23 | 45.08282 | -121.52038 | 30992 ft | 494 kts | 165° |
| 2026-05-06 04:23 | 45.01568 | -121.49886 | 30991 ft | 495 kts | 165° |
| 2026-05-06 04:24 | 44.94850 | -121.47741 | 30982 ft | 495 kts | 165° |
| 2026-05-06 04:24 | 44.88171 | -121.45619 | 30982 ft | 495 kts | 165° |
| 2026-05-06 04:25 | 44.81447 | -121.43481 | 30977 ft | 495 kts | 165° |
| 2026-05-06 04:25 | 44.74724 | -121.41345 | 30976 ft | 495 kts | 165° |
| 2026-05-06 04:26 | 44.68007 | -121.39219 | 30975 ft | 494 kts | 165° |
| 2026-05-06 04:26 | 44.61351 | -121.37115 | 30967 ft | 493 kts | 165° |
| 2026-05-06 04:27 | 44.54663 | -121.34993 | 30935 ft | 492 kts | 166° |
| 2026-05-06 04:27 | 44.47998 | -121.32902 | 30974 ft | 490 kts | 166° |
| 2026-05-06 04:28 | 44.41337 | -121.30837 | 30992 ft | 491 kts | 166° |
| 2026-05-06 04:28 | 44.34666 | -121.28756 | 31004 ft | 491 kts | 166° |
| 2026-05-06 04:29 | 44.28036 | -121.26682 | 31010 ft | 492 kts | 166° |
| 2026-05-06 04:29 | 44.21351 | -121.24598 | 31012 ft | 492 kts | 166° |
| 2026-05-06 04:30 | 44.14664 | -121.22523 | 31031 ft | 493 kts | 166° |
| 2026-05-06 04:30 | 44.07971 | -121.20459 | 31029 ft | 493 kts | 166° |
| 2026-05-06 04:31 | 44.01320 | -121.18405 | 31031 ft | 493 kts | 166° |
| 2026-05-06 04:31 | 43.94625 | -121.16338 | 31017 ft | 492 kts | 166° |
| 2026-05-06 04:32 | 43.87941 | -121.14280 | 31006 ft | 491 kts | 166° |
| 2026-05-06 04:32 | 43.81267 | -121.12230 | 30995 ft | 492 kts | 166° |
| 2026-05-06 04:33 | 43.74617 | -121.10194 | 30985 ft | 493 kts | 166° |
| 2026-05-06 04:33 | 43.67917 | -121.08156 | 30988 ft | 493 kts | 166° |
| 2026-05-06 04:34 | 43.61210 | -121.06114 | 30984 ft | 494 kts | 166° |
| 2026-05-06 04:34 | 43.54504 | -121.04073 | 30989 ft | 494 kts | 166° |
| 2026-05-06 04:35 | 43.47794 | -121.02034 | 30985 ft | 494 kts | 166° |
| 2026-05-06 04:35 | 43.41125 | -121.00014 | 30983 ft | 494 kts | 166° |
| 2026-05-06 04:36 | 43.34411 | -120.97974 | 30985 ft | 494 kts | 165° |
| 2026-05-06 04:36 | 43.27707 | -120.95874 | 30977 ft | 494 kts | 165° |
| 2026-05-06 04:37 | 43.20991 | -120.93832 | 30979 ft | 495 kts | 166° |
| 2026-05-06 04:37 | 43.14273 | -120.91991 | 30975 ft | 496 kts | 169° |
| 2026-05-06 04:38 | 43.07463 | -120.90481 | 30974 ft | 496 kts | 169° |
| 2026-05-06 04:38 | 43.00657 | -120.88902 | 30980 ft | 496 kts | 168° |
| 2026-05-06 04:39 | 42.93861 | -120.87233 | 30976 ft | 496 kts | 168° |
| 2026-05-06 04:39 | 42.87062 | -120.85550 | 30978 ft | 497 kts | 168° |
| 2026-05-06 04:40 | 42.80258 | -120.83886 | 30978 ft | 497 kts | 168° |
| 2026-05-06 04:40 | 42.73499 | -120.82249 | 30976 ft | 497 kts | 168° |
| 2026-05-06 04:41 | 42.66704 | -120.80614 | 30977 ft | 495 kts | 168° |
| 2026-05-06 04:41 | 42.59930 | -120.78982 | 30971 ft | 494 kts | 168° |
| 2026-05-06 04:42 | 42.53153 | -120.77348 | 30970 ft | 495 kts | 168° |
| 2026-05-06 04:42 | 42.49820 | -120.76549 | 31687 ft | 474 kts | 167° |
| 2026-05-06 04:42 | 42.46659 | -120.75795 | 32378 ft | 464 kts | 167° |
| 2026-05-06 04:42 | 42.43488 | -120.75037 | 32693 ft | 463 kts | 167° |
| 2026-05-06 04:43 | 42.40317 | -120.74276 | 32989 ft | 462 kts | 167° |
| 2026-05-06 04:43 | 42.37160 | -120.73517 | 33245 ft | 462 kts | 167° |
| 2026-05-06 04:43 | 42.33981 | -120.72752 | 33286 ft | 468 kts | 167° |
| 2026-05-06 04:43 | 42.30742 | -120.71977 | 33166 ft | 477 kts | 167° |
| 2026-05-06 04:44 | 42.27444 | -120.71191 | 33075 ft | 485 kts | 167° |
| 2026-05-06 04:44 | 42.20734 | -120.69599 | 33022 ft | 492 kts | 167° |
| 2026-05-06 04:45 | 42.14034 | -120.68015 | 33011 ft | 492 kts | 167° |
| 2026-05-06 04:45 | 42.07294 | -120.66420 | 33010 ft | 492 kts | 167° |
| 2026-05-06 04:46 | 42.00567 | -120.64829 | 32997 ft | 491 kts | 167° |
| 2026-05-06 04:46 | 41.93829 | -120.63239 | 32978 ft | 491 kts | 167° |
| 2026-05-06 04:47 | 41.87094 | -120.61660 | 32957 ft | 492 kts | 167° |
| 2026-05-06 04:47 | 41.80397 | -120.60092 | 32957 ft | 492 kts | 167° |
| 2026-05-06 04:48 | 41.73651 | -120.58513 | 32974 ft | 492 kts | 167° |
| 2026-05-06 04:48 | 41.66905 | -120.56934 | 32996 ft | 492 kts | 167° |
| 2026-05-06 04:49 | 41.60157 | -120.55360 | 33021 ft | 492 kts | 167° |
| 2026-05-06 04:49 | 41.53448 | -120.53801 | 33029 ft | 493 kts | 167° |
| 2026-05-06 04:50 | 41.46693 | -120.52236 | 33030 ft | 492 kts | 167° |
| 2026-05-06 04:50 | 41.39941 | -120.50677 | 33026 ft | 493 kts | 167° |
| 2026-05-06 04:51 | 41.33181 | -120.49114 | 32998 ft | 493 kts | 167° |
| 2026-05-06 04:51 | 41.26430 | -120.47554 | 32988 ft | 493 kts | 167° |
| 2026-05-06 04:52 | 41.19714 | -120.46008 | 32955 ft | 493 kts | 167° |
| 2026-05-06 04:52 | 41.12958 | -120.44457 | 32935 ft | 493 kts | 167° |
| 2026-05-06 04:53 | 41.06203 | -120.42892 | 32927 ft | 493 kts | 167° |
| 2026-05-06 04:53 | 40.99444 | -120.41306 | 32927 ft | 493 kts | 166° |
| 2026-05-06 04:54 | 40.92803 | -120.39333 | 32921 ft | 492 kts | 163° |
| 2026-05-06 04:54 | 40.86155 | -120.37170 | 32913 ft | 492 kts | 163° |
| 2026-05-06 04:55 | 40.79495 | -120.35055 | 32916 ft | 493 kts | 163° |
| 2026-05-06 04:55 | 40.73949 | -120.33340 | 32908 ft | 493 kts | 163° |
| 2026-05-06 04:56 | 40.67268 | -120.31288 | 32895 ft | 493 kts | 164° |
| 2026-05-06 04:56 | 40.59512 | -120.28904 | 32922 ft | 492 kts | 164° |
| 2026-05-06 04:57 | 40.52842 | -120.26858 | 32936 ft | 492 kts | 163° |
| 2026-05-06 04:57 | 40.47304 | -120.25163 | 32933 ft | 491 kts | 164° |
| 2026-05-06 04:58 | 40.40647 | -120.23124 | 32940 ft | 491 kts | 163° |
| 2026-05-06 04:58 | 40.32916 | -120.20759 | 32929 ft | 491 kts | 163° |
| 2026-05-06 04:59 | 40.27387 | -120.19070 | 32905 ft | 491 kts | 163° |
| 2026-05-06 04:59 | 40.20741 | -120.17046 | 32886 ft | 491 kts | 163° |
| 2026-05-06 05:00 | 40.14091 | -120.15029 | 32887 ft | 490 kts | 163° |
| 2026-05-06 05:00 | 40.07445 | -120.13020 | 32880 ft | 490 kts | 163° |
| 2026-05-06 05:01 | 40.00847 | -120.11025 | 32897 ft | 490 kts | 163° |
| 2026-05-06 05:01 | 39.94202 | -120.09015 | 32920 ft | 490 kts | 163° |
| 2026-05-06 05:02 | 39.87564 | -120.07012 | 32947 ft | 489 kts | 163° |
| 2026-05-06 05:02 | 39.80936 | -120.05017 | 32986 ft | 489 kts | 163° |
| 2026-05-06 05:03 | 39.74300 | -120.03026 | 33016 ft | 489 kts | 163° |
| 2026-05-06 05:03 | 39.67704 | -120.01057 | 33032 ft | 489 kts | 163° |
| 2026-05-06 05:04 | 39.61069 | -119.99075 | 33035 ft | 489 kts | 163° |
| 2026-05-06 05:04 | 39.54428 | -119.97092 | 33022 ft | 490 kts | 163° |
| 2026-05-06 05:05 | 39.47777 | -119.95109 | 33007 ft | 491 kts | 163° |
| 2026-05-06 05:05 | 39.41162 | -119.93142 | 33000 ft | 491 kts | 163° |
| 2026-05-06 05:06 | 39.34492 | -119.91165 | 33064 ft | 492 kts | 164° |
| 2026-05-06 05:06 | 39.27815 | -119.89196 | 33035 ft | 493 kts | 163° |
| 2026-05-06 05:07 | 39.21124 | -119.87220 | 33053 ft | 494 kts | 163° |
| 2026-05-06 05:07 | 39.14472 | -119.85256 | 33056 ft | 494 kts | 163° |
| 2026-05-06 05:08 | 39.07780 | -119.83291 | 33046 ft | 493 kts | 163° |
| 2026-05-06 05:08 | 39.01082 | -119.81320 | 33050 ft | 493 kts | 163° |
| 2026-05-06 05:09 | 38.94395 | -119.79359 | 33048 ft | 493 kts | 163° |
| 2026-05-06 05:09 | 38.87750 | -119.77422 | 33040 ft | 493 kts | 163° |
| 2026-05-06 05:10 | 38.81070 | -119.75474 | 33027 ft | 492 kts | 163° |
| 2026-05-06 05:10 | 38.74393 | -119.73527 | 33048 ft | 492 kts | 163° |
| 2026-05-06 05:11 | 38.67720 | -119.71585 | 33020 ft | 491 kts | 163° |
| 2026-05-06 05:11 | 38.61053 | -119.69647 | 33005 ft | 491 kts | 163° |
| 2026-05-06 05:12 | 38.54436 | -119.67726 | 33016 ft | 492 kts | 163° |
| 2026-05-06 05:12 | 38.47772 | -119.65769 | 33020 ft | 491 kts | 163° |
| 2026-05-06 05:13 | 38.41103 | -119.63831 | 33021 ft | 491 kts | 163° |
| 2026-05-06 05:13 | 38.34430 | -119.61914 | 33044 ft | 492 kts | 163° |
| 2026-05-06 05:14 | 38.27786 | -119.60037 | 33038 ft | 492 kts | 164° |
| 2026-05-06 05:14 | 38.21097 | -119.58186 | 33042 ft | 492 kts | 163° |
| 2026-05-06 05:15 | 38.14411 | -119.56297 | 33039 ft | 492 kts | 163° |
| 2026-05-06 05:15 | 38.07739 | -119.54391 | 33041 ft | 491 kts | 163° |
| 2026-05-06 05:16 | 38.01072 | -119.52493 | 33042 ft | 491 kts | 163° |
| 2026-05-06 05:16 | 37.94448 | -119.50619 | 33040 ft | 490 kts | 163° |
| 2026-05-06 05:17 | 37.87794 | -119.48744 | 33040 ft | 490 kts | 163° |
| 2026-05-06 05:17 | 37.81138 | -119.46873 | 33039 ft | 490 kts | 163° |
| 2026-05-06 05:18 | 37.74532 | -119.45019 | 33031 ft | 489 kts | 163° |
| 2026-05-06 05:18 | 37.67885 | -119.43154 | 33038 ft | 489 kts | 163° |
| 2026-05-06 05:19 | 37.61243 | -119.41290 | 33042 ft | 489 kts | 163° |
| 2026-05-06 05:19 | 37.54589 | -119.39433 | 33041 ft | 490 kts | 163° |
| 2026-05-06 05:20 | 37.47939 | -119.37577 | 33045 ft | 489 kts | 163° |
| 2026-05-06 05:20 | 37.41336 | -119.35744 | 33039 ft | 490 kts | 162° |
| 2026-05-06 05:21 | 37.34682 | -119.33899 | 33040 ft | 489 kts | 163° |
| 2026-05-06 05:21 | 37.28030 | -119.32052 | 33036 ft | 490 kts | 162° |
| 2026-05-06 05:22 | 37.21372 | -119.30208 | 33031 ft | 489 kts | 162° |
| 2026-05-06 05:22 | 37.14766 | -119.28381 | 33037 ft | 489 kts | 162° |
| 2026-05-06 05:23 | 37.08127 | -119.26550 | 33035 ft | 488 kts | 162° |
| 2026-05-06 05:23 | 36.98177 | -119.23820 | 33038 ft | 488 kts | 162° |
| 2026-05-06 05:24 | 36.91537 | -119.21999 | 33046 ft | 489 kts | 162° |
| 2026-05-06 05:24 | 36.84904 | -119.20180 | 33054 ft | 488 kts | 162° |
| 2026-05-06 05:25 | 36.78326 | -119.18382 | 33052 ft | 487 kts | 162° |
| 2026-05-06 05:25 | 36.71691 | -119.16567 | 33058 ft | 488 kts | 162° |
| 2026-05-06 05:26 | 36.65063 | -119.14759 | 33062 ft | 487 kts | 162° |
| 2026-05-06 05:26 | 36.58432 | -119.12965 | 33067 ft | 488 kts | 162° |
| 2026-05-06 05:27 | 36.51803 | -119.11169 | 33072 ft | 487 kts | 162° |
| 2026-05-06 05:27 | 36.45226 | -119.09383 | 33072 ft | 487 kts | 162° |
| 2026-05-06 05:28 | 36.38599 | -119.07587 | 33071 ft | 488 kts | 162° |
| 2026-05-06 05:28 | 36.31970 | -119.05795 | 33079 ft | 488 kts | 162° |
| 2026-05-06 05:29 | 36.25344 | -119.04007 | 33082 ft | 486 kts | 162° |
| 2026-05-06 05:29 | 36.18776 | -119.02218 | 33091 ft | 486 kts | 161° |
| 2026-05-06 05:30 | 36.12169 | -119.00432 | 33098 ft | 486 kts | 162° |
| 2026-05-06 05:30 | 36.05553 | -118.98697 | 33097 ft | 486 kts | 162° |
| 2026-05-06 05:31 | 35.98942 | -118.96957 | 33099 ft | 485 kts | 162° |
| 2026-05-06 05:31 | 35.92344 | -118.95197 | 33092 ft | 485 kts | 161° |
| 2026-05-06 05:32 | 35.85795 | -118.93446 | 33088 ft | 485 kts | 162° |
| 2026-05-06 05:32 | 35.79203 | -118.91691 | 33081 ft | 485 kts | 162° |
| 2026-05-06 05:33 | 35.72611 | -118.89942 | 33083 ft | 484 kts | 162° |
| 2026-05-06 05:33 | 35.66023 | -118.88202 | 33079 ft | 484 kts | 162° |
| 2026-05-06 05:34 | 35.59438 | -118.86465 | 33081 ft | 484 kts | 161° |
| 2026-05-06 05:34 | 35.52899 | -118.84741 | 33077 ft | 484 kts | 161° |
| 2026-05-06 05:35 | 35.46310 | -118.83003 | 33086 ft | 484 kts | 162° |
| 2026-05-06 05:35 | 35.39730 | -118.81272 | 33084 ft | 484 kts | 161° |
| 2026-05-06 05:36 | 35.33156 | -118.79547 | 33078 ft | 483 kts | 162° |
| 2026-05-06 05:36 | 35.26583 | -118.77826 | 33076 ft | 483 kts | 161° |
| 2026-05-06 05:37 | 35.20005 | -118.76110 | 33094 ft | 483 kts | 161° |
| 2026-05-06 05:37 | 35.13476 | -118.74407 | 33098 ft | 483 kts | 161° |
| 2026-05-06 05:38 | 35.06900 | -118.72689 | 33101 ft | 483 kts | 161° |
| 2026-05-06 05:38 | 35.00332 | -118.70980 | 33097 ft | 483 kts | 161° |
| 2026-05-06 05:39 | 34.93767 | -118.69273 | 33082 ft | 482 kts | 161° |
| 2026-05-06 05:39 | 34.87205 | -118.67569 | 33068 ft | 482 kts | 161° |
| 2026-05-06 05:40 | 34.80651 | -118.65863 | 33058 ft | 482 kts | 161° |
| 2026-05-06 05:40 | 34.74140 | -118.64177 | 33058 ft | 482 kts | 161° |
| 2026-05-06 05:41 | 34.67587 | -118.62489 | 33047 ft | 480 kts | 161° |
| 2026-05-06 05:41 | 34.61049 | -118.60805 | 33056 ft | 480 kts | 161° |
| 2026-05-06 05:42 | 34.57912 | -118.59577 | 33059 ft | 467 kts | 147° |
| 2026-05-06 05:42 | 34.55074 | -118.57723 | 33055 ft | 462 kts | 142° |
| 2026-05-06 05:42 | 34.49607 | -118.53656 | 33055 ft | 461 kts | 141° |
| 2026-05-06 05:43 | 34.44133 | -118.49591 | 33063 ft | 462 kts | 142° |
| 2026-05-06 05:43 | 34.38647 | -118.45648 | 33069 ft | 462 kts | 143° |
| 2026-05-06 05:44 | 34.33256 | -118.41846 | 33075 ft | 461 kts | 143° |
| 2026-05-06 05:44 | 34.27715 | -118.37937 | 33088 ft | 461 kts | 143° |
| 2026-05-06 05:45 | 34.22179 | -118.34019 | 33089 ft | 461 kts | 143° |
| 2026-05-06 05:45 | 34.16635 | -118.30109 | 33085 ft | 461 kts | 143° |
| 2026-05-06 05:46 | 34.11129 | -118.26234 | 33084 ft | 461 kts | 144° |
| 2026-05-06 05:46 | 34.05627 | -118.22358 | 33079 ft | 461 kts | 144° |
| 2026-05-06 05:47 | 34.00096 | -118.18462 | 33081 ft | 460 kts | 144° |
| 2026-05-06 05:47 | 33.94560 | -118.14569 | 33077 ft | 461 kts | 144° |
| 2026-05-06 05:48 | 33.89017 | -118.10678 | 33080 ft | 461 kts | 144° |
| 2026-05-06 05:48 | 33.83465 | -118.06799 | 33060 ft | 462 kts | 146° |
| 2026-05-06 05:49 | 33.77866 | -118.03086 | 33058 ft | 464 kts | 147° |
| 2026-05-06 05:49 | 33.75005 | -118.01222 | 32631 ft | 473 kts | 147° |
| 2026-05-06 05:49 | 33.72104 | -117.99334 | 32010 ft | 473 kts | 146° |
| 2026-05-06 05:50 | 33.69229 | -117.97464 | 31353 ft | 468 kts | 146° |
| 2026-05-06 05:50 | 33.66384 | -117.95606 | 30633 ft | 463 kts | 144° |
| 2026-05-06 05:50 | 33.63573 | -117.93759 | 29818 ft | 459 kts | 144° |
| 2026-05-06 05:50 | 33.60796 | -117.91912 | 28953 ft | 455 kts | 144° |
| 2026-05-06 05:51 | 33.58045 | -117.90070 | 28130 ft | 451 kts | 145° |
| 2026-05-06 05:51 | 33.55354 | -117.88272 | 27345 ft | 447 kts | 146° |
| 2026-05-06 05:51 | 33.52640 | -117.86455 | 26606 ft | 451 kts | 146° |
| 2026-05-06 05:51 | 33.49874 | -117.84568 | 25914 ft | 461 kts | 146° |
| 2026-05-06 05:52 | 33.47094 | -117.82661 | 25214 ft | 460 kts | 146° |
| 2026-05-06 05:52 | 33.44345 | -117.80741 | 24517 ft | 454 kts | 142° |
| 2026-05-06 05:52 | 33.41867 | -117.78463 | 23825 ft | 446 kts | 135° |
| 2026-05-06 05:52 | 33.39571 | -117.76000 | 23052 ft | 441 kts | 134° |
| 2026-05-06 05:53 | 33.37338 | -117.73517 | 22311 ft | 435 kts | 134° |
| 2026-05-06 05:53 | 33.35130 | -117.71058 | 21628 ft | 432 kts | 134° |
| 2026-05-06 05:53 | 33.33670 | -117.69444 | 21190 ft | 431 kts | 135° |
| 2026-05-06 05:53 | 33.32896 | -117.68595 | 20956 ft | 430 kts | 135° |
| 2026-05-06 05:54 | 33.30687 | -117.66194 | 20307 ft | 428 kts | 135° |
| 2026-05-06 05:54 | 33.28479 | -117.63824 | 19669 ft | 425 kts | 136° |
| 2026-05-06 05:54 | 33.26276 | -117.61481 | 19019 ft | 423 kts | 136° |
| 2026-05-06 05:54 | 33.24081 | -117.59156 | 18343 ft | 421 kts | 137° |
| 2026-05-06 05:55 | 33.21887 | -117.56853 | 17506 ft | 418 kts | 137° |
| 2026-05-06 05:55 | 33.19715 | -117.54590 | 16747 ft | 411 kts | 137° |
| 2026-05-06 05:55 | 33.17598 | -117.52388 | 16046 ft | 395 kts | 137° |
| 2026-05-06 05:55 | 33.15571 | -117.50276 | 15418 ft | 379 kts | 137° |
| 2026-05-06 05:56 | 33.13591 | -117.48224 | 14814 ft | 390 kts | 139° |
| 2026-05-06 05:56 | 33.11385 | -117.46217 | 14225 ft | 401 kts | 143° |
| 2026-05-06 05:56 | 33.09118 | -117.44345 | 13605 ft | 393 kts | 144° |
| 2026-05-06 05:56 | 33.06886 | -117.42552 | 13082 ft | 381 kts | 144° |
| 2026-05-06 05:57 | 33.04741 | -117.40829 | 12555 ft | 361 kts | 144° |
| 2026-05-06 05:57 | 33.02724 | -117.39189 | 12045 ft | 341 kts | 143° |
| 2026-05-06 05:57 | 33.00822 | -117.37625 | 11548 ft | 324 kts | 143° |
| 2026-05-06 05:57 | 32.99017 | -117.36126 | 11175 ft | 307 kts | 143° |
| 2026-05-06 05:58 | 32.97328 | -117.34753 | 11035 ft | 291 kts | 150° |
| 2026-05-06 05:58 | 32.95437 | -117.34035 | 11006 ft | 285 kts | 168° |
| 2026-05-06 05:58 | 32.93511 | -117.33666 | 10990 ft | 273 kts | 170° |
| 2026-05-06 05:58 | 32.91702 | -117.33284 | 10963 ft | 256 kts | 158° |
| 2026-05-06 05:59 | 32.90318 | -117.32076 | 10884 ft | 250 kts | 120° |
| 2026-05-06 05:59 | 32.89502 | -117.30258 | 10668 ft | 249 kts | 113° |
| 2026-05-06 05:59 | 32.88765 | -117.28398 | 10423 ft | 247 kts | 112° |
| 2026-05-06 05:59 | 32.88047 | -117.26552 | 10191 ft | 245 kts | 111° |
| 2026-05-06 06:00 | 32.87491 | -117.24660 | 9944 ft | 241 kts | 103° |
| 2026-05-06 06:00 | 32.87068 | -117.22735 | 9677 ft | 240 kts | 102° |
| 2026-05-06 06:00 | 32.86684 | -117.20836 | 9413 ft | 239 kts | 101° |
| 2026-05-06 06:00 | 32.86302 | -117.18910 | 9105 ft | 241 kts | 101° |
| 2026-05-06 06:01 | 32.85926 | -117.16973 | 8844 ft | 240 kts | 101° |
| 2026-05-06 06:01 | 32.85556 | -117.15044 | 8603 ft | 239 kts | 101° |
| 2026-05-06 06:01 | 32.85188 | -117.13120 | 8356 ft | 238 kts | 101° |
| 2026-05-06 06:01 | 32.84822 | -117.11200 | 8112 ft | 238 kts | 101° |
| 2026-05-06 06:02 | 32.84457 | -117.09282 | 7865 ft | 237 kts | 101° |
| 2026-05-06 06:02 | 32.84094 | -117.07375 | 7668 ft | 235 kts | 101° |
| 2026-05-06 06:02 | 32.83731 | -117.05485 | 7398 ft | 235 kts | 101° |
| 2026-05-06 06:02 | 32.83375 | -117.03626 | 7199 ft | 232 kts | 101° |
| 2026-05-06 06:03 | 32.83018 | -117.01766 | 7081 ft | 230 kts | 101° |
| 2026-05-06 06:03 | 32.82662 | -116.99915 | 7027 ft | 230 kts | 101° |
| 2026-05-06 06:03 | 32.82304 | -116.98051 | 6959 ft | 233 kts | 101° |
| 2026-05-06 06:03 | 32.81948 | -116.96196 | 6865 ft | 230 kts | 101° |
| 2026-05-06 06:04 | 32.81590 | -116.94331 | 6672 ft | 231 kts | 101° |
| 2026-05-06 06:04 | 32.81219 | -116.92475 | 6479 ft | 232 kts | 106° |
| 2026-05-06 06:04 | 32.80422 | -116.90814 | 6280 ft | 235 kts | 133° |
| 2026-05-06 06:04 | 32.79094 | -116.89756 | 6122 ft | 235 kts | 160° |
| 2026-05-06 06:05 | 32.77521 | -116.89497 | 6194 ft | 223 kts | 184° |
| 2026-05-06 06:05 | 32.76014 | -116.89694 | 6312 ft | 213 kts | 188° |
| 2026-05-06 06:05 | 32.74572 | -116.89947 | 6363 ft | 206 kts | 189° |
| 2026-05-06 06:05 | 32.73161 | -116.90219 | 6073 ft | 205 kts | 190° |
| 2026-05-06 06:06 | 32.71752 | -116.90504 | 5814 ft | 209 kts | 191° |
| 2026-05-06 06:06 | 32.70244 | -116.90814 | 5893 ft | 226 kts | 191° |
| 2026-05-06 06:06 | 32.68682 | -116.91144 | 6242 ft | 235 kts | 191° |
| 2026-05-06 06:06 | 32.67058 | -116.91892 | 5755 ft | 271 kts | 221° |
| 2026-05-06 06:07 | 32.66042 | -116.93741 | 5470 ft | 273 kts | 258° |
| 2026-05-06 06:07 | 32.66142 | -116.95973 | 5059 ft | 277 kts | 291° |
| 2026-05-06 06:07 | 32.66893 | -116.97996 | 4605 ft | 259 kts | 296° |
| 2026-05-06 06:07 | 32.67727 | -116.99774 | 4088 ft | 236 kts | 302° |
| 2026-05-06 06:08 | 32.68525 | -117.01367 | 3802 ft | 211 kts | 299° |
| 2026-05-06 06:08 | 32.69142 | -117.02823 | 3613 ft | 186 kts | 294° |
| 2026-05-06 06:08 | 32.69607 | -117.04158 | 3467 ft | 164 kts | 295° |
| 2026-05-06 06:08 | 32.70121 | -117.05297 | 3271 ft | 149 kts | 291° |
| 2026-05-06 06:09 | 32.70360 | -117.06470 | 3021 ft | 146 kts | 280° |
| 2026-05-06 06:09 | 32.70575 | -117.07644 | 2699 ft | 147 kts | 288° |
| 2026-05-06 06:09 | 32.70901 | -117.08760 | 2385 ft | 145 kts | 290° |
| 2026-05-06 06:09 | 32.71186 | -117.09897 | 2053 ft | 143 kts | 284° |
| 2026-05-06 06:10 | 32.71415 | -117.11020 | 1798 ft | 140 kts | 285° |
| 2026-05-06 06:10 | 32.71692 | -117.12118 | 1549 ft | 140 kts | 287° |
| 2026-05-06 06:10 | 32.71976 | -117.13219 | 1290 ft | 140 kts | 287° |
| 2026-05-06 06:10 | 32.72255 | -117.14323 | 1039 ft | 139 kts | 286° |
| 2026-05-06 06:11 | 32.72505 | -117.15429 | 798 ft | 139 kts | 285° |
| 2026-05-06 06:11 | 32.72765 | -117.16552 | 465 ft | 142 kts | 286° |
| 2026-05-06 06:11 | 32.73045 | -117.17671 | 155 ft | 141 kts | 285° |
| 2026-05-06 06:11 | 32.73304 | -117.18741 | 24 ft | 128 kts | 286° |
| 2026-05-06 06:12 | 32.73494 | -117.19528 | 25 ft | 59 kts | 286° |
| 2026-05-06 06:12 | 32.73569 | -117.19839 | 26 ft | 32 kts | 286° |
| 2026-05-06 06:12 | 32.73619 | -117.20051 | 23 ft | 18 kts | 279° |
| 2026-05-06 06:12 | 32.73605 | -117.20163 | 26 ft | 9 kts | 243° |
| 2026-05-06 06:13 | 32.73557 | -117.20192 | 25 ft | 8 kts | 159° |
| 2026-05-06 06:13 | 32.73535 | -117.20134 | 23 ft | 8 kts | 101° |
| 2026-05-06 06:13 | 32.73521 | -117.20061 | 23 ft | 10 kts | 106° |
| 2026-05-06 06:13 | 32.73500 | -117.19981 | 25 ft | 10 kts | 106° |
| 2026-05-06 06:14 | 32.73480 | -117.19900 | 24 ft | 10 kts | 106° |
| 2026-05-06 06:14 | 32.73459 | -117.19813 | 27 ft | 12 kts | 105° |
| 2026-05-06 06:14 | 32.73440 | -117.19734 | 27 ft | 8 kts | 110° |
| 2026-05-06 06:14 | 32.73394 | -117.19699 | 22 ft | 10 kts | 186° |
| 2026-05-06 06:15 | 32.73339 | -117.19717 | 21 ft | 6 kts | 196° |
| 2026-05-06 06:15 | 32.73304 | -117.19727 | 21 ft | 3 kts | 182° |
| 2026-05-06 06:15 | 32.73289 | -117.19718 | 20 ft | 2 kts | 128° |
| 2026-05-06 06:15 | 32.73281 | -117.19708 | 22 ft | 1 kts | 136° |
| 2026-05-06 06:16 | 32.73279 | -117.19706 | 22 ft | 0 kts | 136° |